sensor_id;sensor_type;location;lat;lon;timestamp;pressure;altitude;pressure_sealevel;temperature;humidity
21395;BME280;10858;42.714;23.180;2022-08-18T00:01:15;94247.97;;;19.50;76.49
21395;BME280;10858;42.714;23.180;2022-08-18T00:03:45;94248.59;;;19.52;76.60
21395;BME280;10858;42.714;23.180;2022-08-18T00:06:12;94244.38;;;19.64;76.23
21395;BME280;10858;42.714;23.180;2022-08-18T00:08:38;94249.44;;;19.52;76.22
21395;BME280;10858;42.714;23.180;2022-08-18T00:11:05;94255.91;;;19.58;76.01
21395;BME280;10858;42.714;23.180;2022-08-18T00:13:32;94251.81;;;19.62;75.91
21395;BME280;10858;42.714;23.180;2022-08-18T00:15:58;94243.09;;;19.60;75.79
21395;BME280;10858;42.714;23.180;2022-08-18T00:18:24;94243.75;;;19.41;76.81
21395;BME280;10858;42.714;23.180;2022-08-18T00:20:50;94248.72;;;19.44;76.91
21395;BME280;10858;42.714;23.180;2022-08-18T00:23:17;94251.78;;;19.56;76.29
21395;BME280;10858;42.714;23.180;2022-08-18T00:25:43;94246.03;;;19.44;77.03
21395;BME280;10858;42.714;23.180;2022-08-18T00:28:11;94247.53;;;19.32;77.25
21395;BME280;10858;42.714;23.180;2022-08-18T00:30:39;94244.75;;;19.40;77.29
21395;BME280;10858;42.714;23.180;2022-08-18T00:33:05;94253.88;;;19.39;77.21
21395;BME280;10858;42.714;23.180;2022-08-18T00:35:36;94246.88;;;19.44;77.13
21395;BME280;10858;42.714;23.180;2022-08-18T00:38:06;94258.41;;;19.38;77.40
21395;BME280;10858;42.714;23.180;2022-08-18T00:40:38;94263.53;;;19.33;77.57
21395;BME280;10858;42.714;23.180;2022-08-18T00:43:10;94257.56;;;19.38;77.46
21395;BME280;10858;42.714;23.180;2022-08-18T00:45:39;94264.84;;;19.23;77.65
21395;BME280;10858;42.714;23.180;2022-08-18T00:48:08;94253.84;;;19.18;77.67
21395;BME280;10858;42.714;23.180;2022-08-18T00:50:46;94255.13;;;19.22;77.82
21395;BME280;10858;42.714;23.180;2022-08-18T00:53:16;94255.28;;;19.20;77.91
21395;BME280;10858;42.714;23.180;2022-08-18T00:55:44;94262.94;;;19.38;77.03
21395;BME280;10858;42.714;23.180;2022-08-18T00:58:19;94264.44;;;19.40;76.25
21395;BME280;10858;42.714;23.180;2022-08-18T01:00:49;94259.34;;;19.31;76.40
21395;BME280;10858;42.714;23.180;2022-08-18T01:03:18;94263.44;;;19.27;76.55
21395;BME280;10858;42.714;23.180;2022-08-18T01:06:00;94263.63;;;19.25;76.67
21395;BME280;10858;42.714;23.180;2022-08-18T01:08:28;94262.16;;;19.23;76.73
21395;BME280;10858;42.714;23.180;2022-08-18T01:10:56;94253.88;;;19.03;77.38
21395;BME280;10858;42.714;23.180;2022-08-18T01:13:27;94251.47;;;18.94;77.86
21395;BME280;10858;42.714;23.180;2022-08-18T01:15:54;94252.28;;;18.94;78.02
21395;BME280;10858;42.714;23.180;2022-08-18T01:18:21;94256.91;;;19.00;77.26
21395;BME280;10858;42.714;23.180;2022-08-18T01:21:17;94261.09;;;19.03;76.44
21395;BME280;10858;42.714;23.180;2022-08-18T01:24:06;94263.22;;;19.07;75.67
21395;BME280;10858;42.714;23.180;2022-08-18T01:26:35;94255.94;;;18.87;76.41
21395;BME280;10858;42.714;23.180;2022-08-18T01:29:05;94255.84;;;18.80;76.77
21395;BME280;10858;42.714;23.180;2022-08-18T01:31:50;94258.56;;;18.65;77.64
21395;BME280;10858;42.714;23.180;2022-08-18T01:34:23;94265.59;;;18.52;78.61
21395;BME280;10858;42.714;23.180;2022-08-18T01:36:50;94268.28;;;18.52;79.02
21395;BME280;10858;42.714;23.180;2022-08-18T01:39:18;94260.63;;;18.49;79.01
21395;BME280;10858;42.714;23.180;2022-08-18T01:41:44;94267.00;;;18.48;79.58
21395;BME280;10858;42.714;23.180;2022-08-18T01:44:11;94265.59;;;18.37;79.89
21395;BME280;10858;42.714;23.180;2022-08-18T01:46:39;94269.09;;;18.38;79.98
21395;BME280;10858;42.714;23.180;2022-08-18T01:49:08;94258.28;;;18.46;79.51
21395;BME280;10858;42.714;23.180;2022-08-18T01:51:35;94256.44;;;18.46;79.41
21395;BME280;10858;42.714;23.180;2022-08-18T01:54:03;94256.16;;;18.41;79.59
21395;BME280;10858;42.714;23.180;2022-08-18T01:56:30;94256.41;;;18.32;80.28
21395;BME280;10858;42.714;23.180;2022-08-18T01:58:56;94245.50;;;18.33;80.15
21395;BME280;10858;42.714;23.180;2022-08-18T02:01:23;94258.19;;;18.39;79.58
21395;BME280;10858;42.714;23.180;2022-08-18T02:03:53;94256.16;;;18.41;79.28
21395;BME280;10858;42.714;23.180;2022-08-18T02:06:21;94260.56;;;18.34;79.99
21395;BME280;10858;42.714;23.180;2022-08-18T02:08:47;94262.06;;;18.22;80.66
21395;BME280;10858;42.714;23.180;2022-08-18T02:11:14;94256.94;;;18.13;81.19
21395;BME280;10858;42.714;23.180;2022-08-18T02:13:40;94257.31;;;17.95;82.03
21395;BME280;10858;42.714;23.180;2022-08-18T02:16:07;94266.22;;;17.73;83.04
21395;BME280;10858;42.714;23.180;2022-08-18T02:18:35;94263.47;;;17.81;83.38
21395;BME280;10858;42.714;23.180;2022-08-18T02:21:11;94264.47;;;17.80;83.74
21395;BME280;10858;42.714;23.180;2022-08-18T02:23:39;94260.91;;;17.88;83.52
21395;BME280;10858;42.714;23.180;2022-08-18T02:26:08;94262.22;;;17.92;83.39
21395;BME280;10858;42.714;23.180;2022-08-18T02:28:35;94263.69;;;17.94;83.29
21395;BME280;10858;42.714;23.180;2022-08-18T02:31:10;94254.81;;;17.94;83.23
21395;BME280;10858;42.714;23.180;2022-08-18T02:33:37;94254.16;;;17.92;83.06
21395;BME280;10858;42.714;23.180;2022-08-18T02:36:04;94255.63;;;17.79;83.25
21395;BME280;10858;42.714;23.180;2022-08-18T02:38:32;94254.31;;;17.75;83.31
21395;BME280;10858;42.714;23.180;2022-08-18T02:41:01;94255.25;;;17.60;84.13
21395;BME280;10858;42.714;23.180;2022-08-18T02:43:28;94264.53;;;17.57;85.11
21395;BME280;10858;42.714;23.180;2022-08-18T02:45:55;94266.66;;;17.62;84.83
21395;BME280;10858;42.714;23.180;2022-08-18T02:48:22;94261.22;;;17.70;84.50
21395;BME280;10858;42.714;23.180;2022-08-18T02:51:13;94261.63;;;17.81;84.00
21395;BME280;10858;42.714;23.180;2022-08-18T02:53:41;94264.50;;;17.95;83.41
21395;BME280;10858;42.714;23.180;2022-08-18T02:56:21;94261.63;;;17.96;83.24
21395;BME280;10858;42.714;23.180;2022-08-18T02:58:49;94253.44;;;17.98;83.09
21395;BME280;10858;42.714;23.180;2022-08-18T03:01:15;94255.69;;;17.86;83.43
21395;BME280;10858;42.714;23.180;2022-08-18T03:03:42;94261.44;;;17.83;83.87
21395;BME280;10858;42.714;23.180;2022-08-18T03:06:08;94259.50;;;17.77;84.06
21395;BME280;10858;42.714;23.180;2022-08-18T03:08:34;94259.84;;;17.74;83.85
21395;BME280;10858;42.714;23.180;2022-08-18T03:11:00;94258.38;;;17.71;83.98
21395;BME280;10858;42.714;23.180;2022-08-18T03:13:26;94265.03;;;17.75;84.15
21395;BME280;10858;42.714;23.180;2022-08-18T03:15:55;94262.38;;;17.90;83.47
21395;BME280;10858;42.714;23.180;2022-08-18T03:18:22;94265.13;;;17.82;83.48
21395;BME280;10858;42.714;23.180;2022-08-18T03:20:49;94270.81;;;17.87;83.55
21395;BME280;10858;42.714;23.180;2022-08-18T03:23:15;94271.06;;;17.92;83.20
21395;BME280;10858;42.714;23.180;2022-08-18T03:25:49;94270.63;;;17.89;83.36
21395;BME280;10858;42.714;23.180;2022-08-18T03:28:16;94274.91;;;17.98;83.14
21395;BME280;10858;42.714;23.180;2022-08-18T03:30:43;94277.25;;;18.15;82.53
21395;BME280;10858;42.714;23.180;2022-08-18T03:33:10;94270.72;;;18.10;82.68
21395;BME280;10858;42.714;23.180;2022-08-18T03:35:36;94271.50;;;18.18;82.62
21395;BME280;10858;42.714;23.180;2022-08-18T03:38:03;94270.19;;;18.14;82.20
21395;BME280;10858;42.714;23.180;2022-08-18T03:40:30;94273.72;;;18.15;81.95
21395;BME280;10858;42.714;23.180;2022-08-18T03:42:56;94275.28;;;18.09;82.32
21395;BME280;10858;42.714;23.180;2022-08-18T03:45:23;94276.81;;;17.89;82.99
21395;BME280;10858;42.714;23.180;2022-08-18T03:47:52;94279.31;;;17.91;83.18
21395;BME280;10858;42.714;23.180;2022-08-18T03:50:18;94276.63;;;17.91;83.15
21395;BME280;10858;42.714;23.180;2022-08-18T03:52:46;94280.72;;;18.16;82.36
21395;BME280;10858;42.714;23.180;2022-08-18T03:55:14;94278.06;;;18.30;81.88
21395;BME280;10858;42.714;23.180;2022-08-18T03:57:42;94286.50;;;18.27;81.43
21395;BME280;10858;42.714;23.180;2022-08-18T04:00:09;94292.16;;;18.32;81.09
21395;BME280;10858;42.714;23.180;2022-08-18T04:02:37;94290.19;;;18.26;81.41
21395;BME280;10858;42.714;23.180;2022-08-18T04:05:04;94297.34;;;18.34;81.51
21395;BME280;10858;42.714;23.180;2022-08-18T04:07:30;94294.19;;;18.30;81.49
21395;BME280;10858;42.714;23.180;2022-08-18T04:09:56;94294.09;;;18.24;81.85
21395;BME280;10858;42.714;23.180;2022-08-18T04:12:23;94299.13;;;18.41;81.90
21395;BME280;10858;42.714;23.180;2022-08-18T04:14:50;94304.59;;;18.92;81.82
21395;BME280;10858;42.714;23.180;2022-08-18T04:17:20;94307.63;;;19.54;80.20
21395;BME280;10858;42.714;23.180;2022-08-18T04:19:51;94311.31;;;20.37;76.89
21395;BME280;10858;42.714;23.180;2022-08-18T04:22:18;94300.09;;;21.49;73.26
21395;BME280;10858;42.714;23.180;2022-08-18T04:24:44;94307.91;;;22.57;70.41
21395;BME280;10858;42.714;23.180;2022-08-18T04:27:11;94308.97;;;22.69;68.55
21395;BME280;10858;42.714;23.180;2022-08-18T04:29:37;94306.97;;;23.28;66.63
21395;BME280;10858;42.714;23.180;2022-08-18T04:32:05;94313.91;;;24.00;62.84
21395;BME280;10858;42.714;23.180;2022-08-18T04:34:33;94317.03;;;24.59;60.97
21395;BME280;10858;42.714;23.180;2022-08-18T04:37:00;94320.38;;;25.47;58.98
21395;BME280;10858;42.714;23.180;2022-08-18T04:39:27;94323.06;;;25.28;56.85
21395;BME280;10858;42.714;23.180;2022-08-18T04:41:53;94318.19;;;24.70;58.16
21395;BME280;10858;42.714;23.180;2022-08-18T04:44:20;94317.16;;;24.46;58.46
21395;BME280;10858;42.714;23.180;2022-08-18T04:46:49;94328.72;;;24.35;60.20
21395;BME280;10858;42.714;23.180;2022-08-18T04:49:18;94324.38;;;25.19;56.97
21395;BME280;10858;42.714;23.180;2022-08-18T04:51:48;94328.09;;;26.80;52.37
21395;BME280;10858;42.714;23.180;2022-08-18T04:54:38;94326.19;;;27.38;50.25
21395;BME280;10858;42.714;23.180;2022-08-18T04:57:09;94324.91;;;27.41;48.89
21395;BME280;10858;42.714;23.180;2022-08-18T04:59:36;94330.34;;;27.18;49.36
21395;BME280;10858;42.714;23.180;2022-08-18T05:02:03;94325.25;;;27.84;47.37
21395;BME280;10858;42.714;23.180;2022-08-18T05:04:35;94324.66;;;29.88;43.24
21395;BME280;10858;42.714;23.180;2022-08-18T05:07:04;94331.69;;;31.44;39.98
21395;BME280;10858;42.714;23.180;2022-08-18T05:09:30;94340.09;;;32.31;37.98
21395;BME280;10858;42.714;23.180;2022-08-18T05:11:57;94341.88;;;32.77;37.35
21395;BME280;10858;42.714;23.180;2022-08-18T05:14:23;94337.53;;;33.21;36.54
21395;BME280;10858;42.714;23.180;2022-08-18T05:16:50;94336.16;;;34.43;36.16
21395;BME280;10858;42.714;23.180;2022-08-18T05:19:19;94340.47;;;34.64;35.46
21395;BME280;10858;42.714;23.180;2022-08-18T05:21:49;94342.63;;;35.16;33.25
21395;BME280;10858;42.714;23.180;2022-08-18T05:24:15;94342.38;;;35.51;32.90
21395;BME280;10858;42.714;23.180;2022-08-18T05:26:42;94340.63;;;35.84;31.04
21395;BME280;10858;42.714;23.180;2022-08-18T05:29:08;94342.94;;;36.06;31.26
21395;BME280;10858;42.714;23.180;2022-08-18T05:31:35;94337.09;;;37.29;29.83
21395;BME280;10858;42.714;23.180;2022-08-18T05:34:01;94340.22;;;38.19;28.47
21395;BME280;10858;42.714;23.180;2022-08-18T05:36:51;94350.84;;;38.44;27.67
21395;BME280;10858;42.714;23.180;2022-08-18T05:39:29;94343.25;;;38.99;26.72
21395;BME280;10858;42.714;23.180;2022-08-18T05:42:06;94339.41;;;37.73;27.78
21395;BME280;10858;42.714;23.180;2022-08-18T05:44:36;94334.28;;;36.97;29.17
21395;BME280;10858;42.714;23.180;2022-08-18T05:49:50;94339.13;;;36.86;28.57
21395;BME280;10858;42.714;23.180;2022-08-18T05:55:14;94335.00;;;37.72;28.28
21395;BME280;10858;42.714;23.180;2022-08-18T05:58:14;94336.50;;;37.64;27.86
21395;BME280;10858;42.714;23.180;2022-08-18T06:00:54;94333.72;;;36.76;29.42
21395;BME280;10858;42.714;23.180;2022-08-18T06:03:37;94334.91;;;36.70;30.34
21395;BME280;10858;42.714;23.180;2022-08-18T06:06:33;94333.41;;;36.40;31.89
21395;BME280;10858;42.714;23.180;2022-08-18T06:09:15;94333.28;;;36.27;30.83
21395;BME280;10858;42.714;23.180;2022-08-18T06:11:42;94324.38;;;36.30;31.92
21395;BME280;10858;42.714;23.180;2022-08-18T06:14:08;94342.38;;;36.27;30.83
21395;BME280;10858;42.714;23.180;2022-08-18T06:16:47;94344.81;;;35.53;32.61
21395;BME280;10858;42.714;23.180;2022-08-18T06:19:40;94335.91;;;35.61;32.43
21395;BME280;10858;42.714;23.180;2022-08-18T06:28:10;94341.22;;;35.19;32.16
21395;BME280;10858;42.714;23.180;2022-08-18T06:41:46;94342.66;;;36.26;33.07
21395;BME280;10858;42.714;23.180;2022-08-18T06:44:24;94342.19;;;36.85;30.23
21395;BME280;10858;42.714;23.180;2022-08-18T06:54:58;94335.53;;;36.86;29.86
21395;BME280;10858;42.714;23.180;2022-08-18T06:57:28;94327.97;;;37.79;28.21
21395;BME280;10858;42.714;23.180;2022-08-18T07:00:03;94328.75;;;38.25;29.63
21395;BME280;10858;42.714;23.180;2022-08-18T07:02:41;94333.94;;;39.53;27.61
21395;BME280;10858;42.714;23.180;2022-08-18T07:05:56;94321.00;;;39.26;26.39
21395;BME280;10858;42.714;23.180;2022-08-18T07:08:28;94318.09;;;39.75;26.24
21395;BME280;10858;42.714;23.180;2022-08-18T07:10:57;94318.16;;;40.54;24.59
21395;BME280;10858;42.714;23.180;2022-08-18T07:13:38;94315.97;;;40.90;24.58
21395;BME280;10858;42.714;23.180;2022-08-18T07:16:30;94323.13;;;41.94;23.81
21395;BME280;10858;42.714;23.180;2022-08-18T07:21:36;94315.97;;;41.07;25.24
21395;BME280;10858;42.714;23.180;2022-08-18T07:24:14;94313.22;;;42.22;24.92
21395;BME280;10858;42.714;23.180;2022-08-18T07:29:29;94310.94;;;42.62;22.02
21395;BME280;10858;42.714;23.180;2022-08-18T07:31:59;94306.41;;;42.11;23.14
21395;BME280;10858;42.714;23.180;2022-08-18T07:34:35;94311.22;;;41.59;24.11
21395;BME280;10858;42.714;23.180;2022-08-18T07:37:13;94302.91;;;42.60;22.49
21395;BME280;10858;42.714;23.180;2022-08-18T07:39:50;94304.63;;;42.36;24.25
21395;BME280;10858;42.714;23.180;2022-08-18T07:49:53;94297.59;;;39.93;23.74
21395;BME280;10858;42.714;23.180;2022-08-18T07:52:35;94297.78;;;41.01;23.56
21395;BME280;10858;42.714;23.180;2022-08-18T07:55:06;94297.50;;;40.07;23.12
21395;BME280;10858;42.714;23.180;2022-08-18T08:11:55;94308.84;;;40.67;23.25
21395;BME280;10858;42.714;23.180;2022-08-18T08:14:43;94297.41;;;39.59;23.41
21395;BME280;10858;42.714;23.180;2022-08-18T08:17:30;94303.59;;;40.18;24.02
21395;BME280;10858;42.714;23.180;2022-08-18T08:28:41;94291.41;;;40.92;22.54
21395;BME280;10858;42.714;23.180;2022-08-18T08:31:21;94291.91;;;41.45;21.53
21395;BME280;10858;42.714;23.180;2022-08-18T08:34:02;94284.09;;;41.94;22.35
21395;BME280;10858;42.714;23.180;2022-08-18T08:36:33;94292.41;;;41.30;22.70
21395;BME280;10858;42.714;23.180;2022-08-18T08:39:20;94286.44;;;40.16;22.83
21395;BME280;10858;42.714;23.180;2022-08-18T08:42:08;94287.91;;;40.22;24.38
21395;BME280;10858;42.714;23.180;2022-08-18T08:44:54;94291.56;;;41.73;22.62
21395;BME280;10858;42.714;23.180;2022-08-18T08:50:32;94285.63;;;40.24;26.18
21395;BME280;10858;42.714;23.180;2022-08-18T08:53:17;94292.72;;;41.55;22.13
21395;BME280;10858;42.714;23.180;2022-08-18T08:55:50;94289.59;;;40.96;22.12
21395;BME280;10858;42.714;23.180;2022-08-18T08:58:36;94286.75;;;42.45;23.13
21395;BME280;10858;42.714;23.180;2022-08-18T09:01:06;94287.97;;;42.27;20.91
21395;BME280;10858;42.714;23.180;2022-08-18T09:06:47;94287.94;;;40.95;21.78
21395;BME280;10858;42.714;23.180;2022-08-18T09:15:32;94271.03;;;39.26;22.43
21395;BME280;10858;42.714;23.180;2022-08-18T09:18:07;94261.78;;;39.61;22.45
21395;BME280;10858;42.714;23.180;2022-08-18T09:23:39;94269.78;;;40.98;21.54
21395;BME280;10858;42.714;23.180;2022-08-18T09:37:26;94245.44;;;41.84;21.54
21395;BME280;10858;42.714;23.180;2022-08-18T09:40:09;94247.44;;;41.75;20.54
21395;BME280;10858;42.714;23.180;2022-08-18T09:43:23;94237.78;;;41.64;19.87
21395;BME280;10858;42.714;23.180;2022-08-18T09:45:59;94243.84;;;41.74;23.22
21395;BME280;10858;42.714;23.180;2022-08-18T09:48:38;94233.81;;;41.82;19.16
21395;BME280;10858;42.714;23.180;2022-08-18T09:56:54;94225.22;;;40.89;20.99
21395;BME280;10858;42.714;23.180;2022-08-18T09:59:03;94226.66;;;40.44;20.49
21395;BME280;10858;42.714;23.180;2022-08-18T10:01:35;94223.88;;;40.44;21.83
21395;BME280;10858;42.714;23.180;2022-08-18T10:06:45;94223.31;;;39.85;22.09
21395;BME280;10858;42.714;23.180;2022-08-18T10:14:56;94214.09;;;40.89;21.40
21395;BME280;10858;42.714;23.180;2022-08-18T10:22:51;94203.13;;;41.18;21.01
21395;BME280;10858;42.714;23.180;2022-08-18T10:25:41;94215.72;;;41.07;19.70
21395;BME280;10858;42.714;23.180;2022-08-18T10:28:09;94197.94;;;41.72;20.83
21395;BME280;10858;42.714;23.180;2022-08-18T10:33:09;94195.09;;;44.31;17.14
21395;BME280;10858;42.714;23.180;2022-08-18T10:38:25;94189.75;;;40.13;21.62
21395;BME280;10858;42.714;23.180;2022-08-18T10:41:08;94190.06;;;39.63;21.38
21395;BME280;10858;42.714;23.180;2022-08-18T10:43:43;94187.06;;;39.90;21.19
21395;BME280;10858;42.714;23.180;2022-08-18T10:46:20;94187.38;;;39.80;21.67
21395;BME280;10858;42.714;23.180;2022-08-18T10:51:50;94186.78;;;42.09;19.22
21395;BME280;10858;42.714;23.180;2022-08-18T11:00:07;94181.91;;;41.51;20.04
21395;BME280;10858;42.714;23.180;2022-08-18T11:03:01;94168.72;;;42.15;19.37
21395;BME280;10858;42.714;23.180;2022-08-18T11:05:34;94183.78;;;42.52;21.16
21395;BME280;10858;42.714;23.180;2022-08-18T11:08:04;94172.53;;;42.81;19.36
21395;BME280;10858;42.714;23.180;2022-08-18T11:10:40;94166.09;;;42.69;20.34
21395;BME280;10858;42.714;23.180;2022-08-18T11:13:30;94167.19;;;43.62;18.83
21395;BME280;10858;42.714;23.180;2022-08-18T11:16:46;94161.97;;;43.97;16.84
21395;BME280;10858;42.714;23.180;2022-08-18T11:19:16;94167.25;;;44.11;15.98
21395;BME280;10858;42.714;23.180;2022-08-18T11:21:45;94171.44;;;43.48;18.89
21395;BME280;10858;42.714;23.180;2022-08-18T11:24:26;94167.31;;;43.66;17.54
21395;BME280;10858;42.714;23.180;2022-08-18T11:26:58;94167.22;;;43.42;17.85
21395;BME280;10858;42.714;23.180;2022-08-18T11:29:37;94162.88;;;42.08;19.24
21395;BME280;10858;42.714;23.180;2022-08-18T11:35:10;94161.06;;;40.60;20.66
21395;BME280;10858;42.714;23.180;2022-08-18T11:43:01;94160.38;;;39.72;22.62
21395;BME280;10858;42.714;23.180;2022-08-18T11:53:59;94148.09;;;43.64;17.62
21395;BME280;10858;42.714;23.180;2022-08-18T11:56:33;94143.56;;;43.27;19.81
21395;BME280;10858;42.714;23.180;2022-08-18T11:59:03;94139.84;;;42.82;17.99
21395;BME280;10858;42.714;23.180;2022-08-18T12:06:27;94119.94;;;41.00;18.95
21395;BME280;10858;42.714;23.180;2022-08-18T12:11:27;94127.25;;;43.74;17.54
21395;BME280;10858;42.714;23.180;2022-08-18T12:14:06;94130.03;;;43.98;17.53
21395;BME280;10858;42.714;23.180;2022-08-18T12:16:41;94127.66;;;43.07;18.16
21395;BME280;10858;42.714;23.180;2022-08-18T12:19:11;94129.59;;;43.27;19.21
21395;BME280;10858;42.714;23.180;2022-08-18T12:21:42;94119.78;;;43.78;17.33
21395;BME280;10858;42.714;23.180;2022-08-18T12:24:27;94123.38;;;43.22;17.66
21395;BME280;10858;42.714;23.180;2022-08-18T12:26:54;94113.91;;;42.40;18.30
21395;BME280;10858;42.714;23.180;2022-08-18T12:29:21;94115.63;;;42.33;20.75
21395;BME280;10858;42.714;23.180;2022-08-18T12:31:49;94125.59;;;42.33;20.06
21395;BME280;10858;42.714;23.180;2022-08-18T12:34:20;94125.28;;;42.76;19.23
21395;BME280;10858;42.714;23.180;2022-08-18T12:36:52;94120.03;;;42.13;18.30
21395;BME280;10858;42.714;23.180;2022-08-18T12:39:19;94119.06;;;42.09;18.64
21395;BME280;10858;42.714;23.180;2022-08-18T12:41:46;94113.47;;;41.80;19.53
21395;BME280;10858;42.714;23.180;2022-08-18T12:44:12;94124.56;;;40.61;20.57
21395;BME280;10858;42.714;23.180;2022-08-18T12:46:39;94122.09;;;40.60;19.55
21395;BME280;10858;42.714;23.180;2022-08-18T12:49:17;94115.69;;;41.11;19.69
21395;BME280;10858;42.714;23.180;2022-08-18T12:51:44;94108.47;;;41.65;18.84
21395;BME280;10858;42.714;23.180;2022-08-18T12:54:11;94108.00;;;41.63;19.62
21395;BME280;10858;42.714;23.180;2022-08-18T12:56:38;94106.28;;;41.32;20.70
21395;BME280;10858;42.714;23.180;2022-08-18T12:59:06;94106.28;;;42.08;20.10
21395;BME280;10858;42.714;23.180;2022-08-18T13:01:34;94111.75;;;42.66;18.45
21395;BME280;10858;42.714;23.180;2022-08-18T13:04:02;94107.13;;;41.16;18.04
21395;BME280;10858;42.714;23.180;2022-08-18T13:06:29;94102.91;;;41.65;17.75
21395;BME280;10858;42.714;23.180;2022-08-18T13:08:56;94104.09;;;41.84;19.02
21395;BME280;10858;42.714;23.180;2022-08-18T13:11:23;94103.88;;;41.05;22.19
21395;BME280;10858;42.714;23.180;2022-08-18T13:13:50;94095.75;;;40.75;19.29
21395;BME280;10858;42.714;23.180;2022-08-18T13:16:17;94095.16;;;39.87;20.57
21395;BME280;10858;42.714;23.180;2022-08-18T13:18:44;94091.13;;;41.50;17.63
21395;BME280;10858;42.714;23.180;2022-08-18T13:21:12;94081.81;;;41.46;17.46
21395;BME280;10858;42.714;23.180;2022-08-18T13:23:39;94073.72;;;41.07;18.28
21395;BME280;10858;42.714;23.180;2022-08-18T13:26:07;94077.56;;;40.26;19.60
21395;BME280;10858;42.714;23.180;2022-08-18T13:28:35;94071.53;;;40.58;20.42
21395;BME280;10858;42.714;23.180;2022-08-18T13:31:03;94072.69;;;40.40;19.88
21395;BME280;10858;42.714;23.180;2022-08-18T13:33:29;94071.00;;;40.73;19.60
21395;BME280;10858;42.714;23.180;2022-08-18T13:35:58;94074.72;;;39.83;21.22
21395;BME280;10858;42.714;23.180;2022-08-18T13:38:24;94082.28;;;39.43;20.79
21395;BME280;10858;42.714;23.180;2022-08-18T13:40:52;94074.63;;;40.14;19.94
21395;BME280;10858;42.714;23.180;2022-08-18T13:43:22;94072.13;;;39.95;20.56
21395;BME280;10858;42.714;23.180;2022-08-18T13:45:50;94078.50;;;39.78;19.91
21395;BME280;10858;42.714;23.180;2022-08-18T13:48:17;94073.97;;;40.34;19.92
21395;BME280;10858;42.714;23.180;2022-08-18T13:50:44;94075.97;;;40.42;19.34
21395;BME280;10858;42.714;23.180;2022-08-18T13:53:14;94070.69;;;40.23;21.02
21395;BME280;10858;42.714;23.180;2022-08-18T13:55:44;94068.88;;;39.45;20.88
21395;BME280;10858;42.714;23.180;2022-08-18T13:58:11;94054.94;;;39.76;22.19
21395;BME280;10858;42.714;23.180;2022-08-18T14:00:38;94055.47;;;39.39;22.14
21395;BME280;10858;42.714;23.180;2022-08-18T14:03:05;94053.47;;;39.22;20.95
21395;BME280;10858;42.714;23.180;2022-08-18T14:05:33;94057.72;;;40.96;19.27
21395;BME280;10858;42.714;23.180;2022-08-18T14:08:00;94058.34;;;39.73;21.48
21395;BME280;10858;42.714;23.180;2022-08-18T14:10:27;94049.53;;;38.92;21.21
21395;BME280;10858;42.714;23.180;2022-08-18T14:12:58;94059.41;;;39.07;23.27
21395;BME280;10858;42.714;23.180;2022-08-18T14:15:25;94051.00;;;38.90;21.26
21395;BME280;10858;42.714;23.180;2022-08-18T14:17:52;94055.78;;;39.93;20.61
21395;BME280;10858;42.714;23.180;2022-08-18T14:20:18;94061.72;;;39.44;22.82
21395;BME280;10858;42.714;23.180;2022-08-18T14:23:04;94060.91;;;39.52;20.62
21395;BME280;10858;42.714;23.180;2022-08-18T14:25:49;94052.34;;;39.32;21.49
21395;BME280;10858;42.714;23.180;2022-08-18T14:28:34;94047.41;;;39.59;20.63
21395;BME280;10858;42.714;23.180;2022-08-18T14:31:01;94048.47;;;40.32;21.09
21395;BME280;10858;42.714;23.180;2022-08-18T14:33:29;94043.38;;;40.59;19.49
21395;BME280;10858;42.714;23.180;2022-08-18T14:35:56;94034.22;;;40.59;19.97
21395;BME280;10858;42.714;23.180;2022-08-18T14:38:22;94049.19;;;39.55;20.87
21395;BME280;10858;42.714;23.180;2022-08-18T14:40:49;94038.78;;;39.95;21.29
21395;BME280;10858;42.714;23.180;2022-08-18T14:43:18;94057.44;;;39.07;22.21
21395;BME280;10858;42.714;23.180;2022-08-18T14:45:47;94042.00;;;39.15;21.82
21395;BME280;10858;42.714;23.180;2022-08-18T14:48:16;94053.13;;;39.54;21.51
21395;BME280;10858;42.714;23.180;2022-08-18T14:50:47;94054.84;;;39.42;21.32
21395;BME280;10858;42.714;23.180;2022-08-18T14:53:15;94047.97;;;39.00;21.76
21395;BME280;10858;42.714;23.180;2022-08-18T14:55:42;94055.22;;;39.57;21.71
21395;BME280;10858;42.714;23.180;2022-08-18T14:58:09;94053.72;;;39.51;21.50
21395;BME280;10858;42.714;23.180;2022-08-18T15:00:35;94058.78;;;39.49;21.47
21395;BME280;10858;42.714;23.180;2022-08-18T15:03:02;94056.13;;;39.92;21.51
21395;BME280;10858;42.714;23.180;2022-08-18T15:05:31;94054.81;;;40.07;20.60
21395;BME280;10858;42.714;23.180;2022-08-18T15:07:59;94054.50;;;40.00;20.90
21395;BME280;10858;42.714;23.180;2022-08-18T15:10:25;94048.16;;;40.50;20.44
21395;BME280;10858;42.714;23.180;2022-08-18T15:12:51;94062.19;;;40.03;21.09
21395;BME280;10858;42.714;23.180;2022-08-18T15:15:18;94061.59;;;39.10;21.81
21395;BME280;10858;42.714;23.180;2022-08-18T15:17:44;94057.84;;;38.92;22.05
21395;BME280;10858;42.714;23.180;2022-08-18T15:20:11;94049.75;;;38.07;23.60
21395;BME280;10858;42.714;23.180;2022-08-18T15:22:42;94050.47;;;38.35;23.70
21395;BME280;10858;42.714;23.180;2022-08-18T15:25:27;94066.50;;;38.91;22.55
21395;BME280;10858;42.714;23.180;2022-08-18T15:28:07;94062.59;;;39.14;23.17
21395;BME280;10858;42.714;23.180;2022-08-18T15:30:34;94065.56;;;39.26;22.28
21395;BME280;10858;42.714;23.180;2022-08-18T15:33:03;94071.22;;;38.60;24.02
21395;BME280;10858;42.714;23.180;2022-08-18T15:35:30;94058.88;;;38.66;22.84
21395;BME280;10858;42.714;23.180;2022-08-18T15:37:56;94065.19;;;39.19;22.95
21395;BME280;10858;42.714;23.180;2022-08-18T15:40:25;94058.78;;;38.57;23.13
21395;BME280;10858;42.714;23.180;2022-08-18T15:42:54;94056.66;;;38.18;23.46